Time;durP1;ratioP1;P1;durP2;ratioP2;P2;SDS_P1;SDS_P2;PMS_P1;PMS_P2;Temp;Humidity;BMP_temperature;BMP_pressure;BME280_temperature;BME280_humidity;BME280_pressure;Samples;Min_cycle;Max_cycle;Signal;HPM_P1;HPM_P2
2023/05/02 00:00:44;;;;;;;2.65;1.60;;;18.60;62.50;;;;;;4950803;28;20704;-69
2023/05/02 00:03:11;;;;;;;1.98;1.50;;;18.60;63.30;;;;;;4961918;28;20193;-69
2023/05/02 00:05:37;;;;;;;1.98;1.83;;;18.60;62.50;;;;;;4972616;28;20205;-68
2023/05/02 00:08:03;;;;;;;3.47;1.70;;;18.60;62.60;;;;;;4968857;28;20672;-68
2023/05/02 00:10:28;;;;;;;2.13;1.92;;;18.60;62.60;;;;;;4959644;28;20753;-68
2023/05/02 00:12:54;;;;;;;1.98;1.83;;;18.60;62.40;;;;;;4983507;28;20189;-68
2023/05/02 00:15:20;;;;;;;1.70;1.60;;;18.60;62.50;;;;;;4966916;28;20212;-68
2023/05/02 00:17:46;;;;;;;2.47;1.88;;;18.60;62.40;;;;;;4975650;28;20219;-68
2023/05/02 00:20:12;;;;;;;1.92;1.70;;;18.60;62.50;;;;;;4959371;28;20188;-68
2023/05/02 00:22:38;;;;;;;1.30;1.20;;;18.60;62.40;;;;;;4983605;28;20216;-68
2023/05/02 00:25:05;;;;;;;2.67;1.90;;;18.60;62.50;;;;;;5002840;28;20212;-68
2023/05/02 00:27:32;;;;;;;2.97;1.67;;;18.60;62.40;;;;;;4970796;28;20192;-69
2023/05/02 00:29:59;;;;;;;1.75;1.65;;;18.60;62.40;;;;;;4994243;28;20264;-68
2023/05/02 00:32:25;;;;;;;2.08;1.75;;;18.60;62.40;;;;;;4970485;28;20645;-69
2023/05/02 00:34:52;;;;;;;1.70;1.45;;;18.60;62.40;;;;;;4975064;28;20214;-69
2023/05/02 00:37:17;;;;;;;1.73;1.60;;;18.60;62.40;;;;;;4966954;28;20256;-68
2023/05/02 00:39:43;;;;;;;1.83;1.60;;;18.60;62.40;;;;;;4944247;28;20193;-68
2023/05/02 00:42:09;;;;;;;2.20;1.55;;;18.60;62.40;;;;;;4965897;28;20189;-69
2023/05/02 00:44:36;;;;;;;1.80;1.70;;;18.60;62.40;;;;;;4966424;28;20217;-67
2023/05/02 00:47:02;;;;;;;2.03;1.83;;;18.60;62.40;;;;;;4966572;28;20190;-68
2023/05/02 00:49:30;;;;;;;1.60;1.50;;;18.60;62.30;;;;;;4966728;28;20181;-69
2023/05/02 00:51:57;;;;;;;1.73;1.63;;;18.60;62.40;;;;;;4958475;28;20191;-68
2023/05/02 00:54:22;;;;;;;2.25;1.75;;;18.70;62.50;;;;;;4990728;28;20220;-68
2023/05/02 00:56:49;;;;;;;1.95;1.63;;;18.60;62.40;;;;;;4958593;28;20192;-68
2023/05/02 00:59:16;;;;;;;1.75;1.65;;;18.60;62.30;;;;;;4982971;28;20197;-68
2023/05/02 01:02:18;;;;;;;2.58;1.48;;;18.60;62.30;;;;;;4983730;28;20327;-68
2023/05/02 01:05:16;;;;;;;1.67;1.58;;;18.60;62.30;;;;;;4982464;28;20719;-68
2023/05/02 01:08:03;;;;;;;2.03;1.77;;;18.60;62.30;;;;;;4942577;28;20280;-68
2023/05/02 01:10:49;;;;;;;1.70;1.60;;;18.60;62.30;;;;;;4973375;28;20189;-68
2023/05/02 01:13:22;;;;;;;1.77;1.67;;;18.60;62.30;;;;;;4964558;28;20228;-68
2023/05/02 01:15:52;;;;;;;1.60;1.50;;;18.60;62.30;;;;;;4965859;28;20676;-69
2023/05/02 01:18:23;;;;;;;1.50;1.40;;;18.60;62.40;;;;;;4958123;28;20559;-68
2023/05/02 01:20:57;;;;;;;2.22;1.67;;;18.60;62.40;;;;;;4942056;28;20190;-68
2023/05/02 01:24:03;;;;;;;2.58;1.77;;;18.60;62.30;;;;;;4957843;28;20196;-68
2023/05/02 01:26:51;;;;;;;1.70;1.55;;;18.60;62.30;;;;;;4935655;28;20256;-68
2023/05/02 01:29:21;;;;;;;2.10;1.33;;;18.60;62.30;;;;;;4991095;28;20185;-68
2023/05/02 01:31:50;;;;;;;2.00;1.70;;;18.60;62.20;;;;;;4991496;28;20201;-68
2023/05/02 01:34:19;;;;;;;1.50;1.40;;;18.60;62.20;;;;;;4961061;28;20207;-68
2023/05/02 01:36:48;;;;;;;1.60;1.48;;;18.60;62.20;;;;;;4955728;28;20198;-68
2023/05/02 01:39:20;;;;;;;2.53;1.80;;;18.60;62.20;;;;;;4941845;28;20196;-69
2023/05/02 01:41:53;;;;;;;1.83;1.65;;;18.60;62.20;;;;;;4991160;28;20197;-69
2023/05/02 01:44:23;;;;;;;1.88;1.65;;;18.60;62.20;;;;;;4995679;28;20231;-68
2023/05/02 01:46:51;;;;;;;1.83;1.73;;;18.60;62.20;;;;;;4973305;28;20273;-69
2023/05/02 01:49:18;;;;;;;1.63;1.52;;;18.60;62.20;;;;;;4947909;28;20206;-68
2023/05/02 01:51:48;;;;;;;1.73;1.60;;;18.60;62.20;;;;;;4973533;28;20200;-68
2023/05/02 01:54:17;;;;;;;1.55;1.40;;;18.50;62.00;;;;;;4941248;28;20221;-68
2023/05/02 01:56:44;;;;;;;1.70;1.60;;;18.60;62.20;;;;;;4981397;28;20197;-68
2023/05/02 01:59:21;;;;;;;1.48;1.38;;;18.60;62.20;;;;;;4977532;28;20188;-68
2023/05/02 02:01:50;;;;;;;1.67;1.50;;;18.60;62.10;;;;;;4967885;28;20207;-68
2023/05/02 02:04:18;;;;;;;1.40;1.30;;;18.60;62.10;;;;;;4950608;28;20731;-68
2023/05/02 02:06:52;;;;;;;1.77;1.48;;;18.60;62.10;;;;;;4998311;28;20186;-68
2023/05/02 02:09:18;;;;;;;1.40;1.30;;;18.50;62.00;;;;;;4967466;28;20284;-68
2023/05/02 02:12:02;;;;;;;1.38;1.27;;;18.60;62.10;;;;;;4968301;28;20181;-69
2023/05/02 02:14:36;;;;;;;1.20;1.20;;;18.60;62.10;;;;;;4956822;28;20205;-68
2023/05/02 02:17:15;;;;;;;1.70;1.60;;;18.60;62.00;;;;;;4959711;28;20189;-68
2023/05/02 02:19:44;;;;;;;1.60;1.50;;;18.60;62.00;;;;;;4984418;28;20208;-69
2023/05/02 02:22:14;;;;;;;1.60;1.50;;;18.50;61.80;;;;;;4949660;28;20196;-68
2023/05/02 02:24:41;;;;;;;1.58;1.33;;;18.50;61.80;;;;;;4948652;28;20225;-68
2023/05/02 02:27:06;;;;;;;1.40;1.30;;;18.60;61.90;;;;;;4957070;28;20236;-68
2023/05/02 02:29:33;;;;;;;1.52;1.42;;;18.60;62.00;;;;;;4989382;28;20215;-68
2023/05/02 02:31:59;;;;;;;2.03;1.50;;;18.50;61.90;;;;;;4983335;28;20719;-68
2023/05/02 02:34:24;;;;;;;1.50;1.40;;;18.60;61.90;;;;;;4985171;28;20209;-68
2023/05/02 02:37:06;;;;;;;1.52;1.40;;;18.60;61.90;;;;;;4974826;28;20185;-68
2023/05/02 02:40:27;;;;;;;1.50;1.40;;;18.50;61.80;;;;;;4964452;28;20239;-68
2023/05/02 02:43:14;;;;;;;1.63;1.52;;;18.60;61.90;;;;;;4963967;28;20208;-68
2023/05/02 02:46:24;;;;;;;1.50;1.40;;;18.50;61.80;;;;;;4951844;28;20197;-69
2023/05/02 02:49:14;;;;;;;1.50;1.35;;;18.50;61.70;;;;;;4946288;28;20204;-68
2023/05/02 02:51:56;;;;;;;1.80;1.60;;;18.50;61.80;;;;;;4972926;28;20673;-68
2023/05/02 02:54:33;;;;;;;2.33;1.63;;;18.60;61.90;;;;;;4965830;28;20300;-68
2023/05/02 02:57:22;;;;;;;1.73;1.63;;;18.60;61.90;;;;;;4972760;28;20198;-69
2023/05/02 03:00:09;;;;;;;1.52;1.42;;;18.50;61.80;;;;;;4964160;28;20209;-68
2023/05/02 03:02:36;;;;;;;1.70;1.60;;;18.60;61.90;;;;;;4961350;28;20190;-68
2023/05/02 03:05:04;;;;;;;1.35;1.25;;;18.60;61.90;;;;;;4963705;28;20205;-68
2023/05/02 03:07:31;;;;;;;1.65;1.55;;;18.60;61.80;;;;;;4939967;28;20182;-68
2023/05/02 03:10:03;;;;;;;2.63;1.65;;;18.60;61.80;;;;;;4963994;28;20239;-68
2023/05/02 03:12:30;;;;;;;1.48;1.38;;;18.60;61.80;;;;;;4964344;28;20332;-68
2023/05/02 03:15:44;;;;;;;2.78;1.70;;;18.60;61.80;;;;;;4963726;28;20217;-68
2023/05/02 03:18:11;;;;;;;1.38;1.27;;;18.50;61.80;;;;;;4919034;28;20229;-69
2023/05/02 03:20:37;;;;;;;1.58;1.48;;;18.50;61.70;;;;;;4996399;28;20197;-69
2023/05/02 03:23:03;;;;;;;1.55;1.45;;;18.60;61.80;;;;;;4982551;28;20187;-69
2023/05/02 03:25:28;;;;;;;1.73;1.48;;;18.50;61.70;;;;;;4968494;28;20226;-69
2023/05/02 03:27:56;;;;;;;1.35;1.27;;;18.50;61.70;;;;;;4948190;28;20194;-68
2023/05/02 03:30:23;;;;;;;2.35;1.50;;;18.50;61.70;;;;;;4955952;28;20193;-69
2023/05/02 03:32:49;;;;;;;1.30;1.20;;;18.50;61.80;;;;;;4939942;28;20200;-68
2023/05/02 03:35:15;;;;;;;1.67;1.58;;;18.60;62.70;;;;;;4979743;28;20214;-68
2023/05/02 03:37:44;;;;;;;1.42;1.33;;;18.60;61.80;;;;;;4955967;28;20195;-68
2023/05/02 03:40:10;;;;;;;1.35;1.20;;;18.50;61.70;;;;;;4955793;28;20205;-68
2023/05/02 03:42:40;;;;;;;1.42;1.33;;;18.50;61.70;;;;;;4939809;28;20194;-68
2023/05/02 03:45:12;;;;;;;1.10;1.10;;;18.50;61.70;;;;;;4960063;28;20212;-68
2023/05/02 03:47:38;;;;;;;1.45;1.20;;;18.50;61.70;;;;;;4960506;28;20184;-68
2023/05/02 03:50:04;;;;;;;1.35;1.30;;;18.50;61.70;;;;;;4939739;28;20182;-68
2023/05/02 03:52:33;;;;;;;2.58;1.33;;;18.50;61.60;;;;;;4957983;28;20213;-68
2023/05/02 03:55:00;;;;;;;1.65;1.40;;;18.50;61.70;;;;;;4959052;28;20264;-68
2023/05/02 03:57:30;;;;;;;1.60;1.50;;;18.50;61.70;;;;;;4967747;28;20190;-68
2023/05/02 03:59:57;;;;;;;1.40;1.30;;;18.50;61.60;;;;;;4959462;28;20217;-68
2023/05/02 04:02:26;;;;;;;1.48;1.38;;;18.50;61.60;;;;;;4976879;28;20197;-68
2023/05/02 04:04:53;;;;;;;1.85;1.30;;;18.50;61.60;;;;;;4958974;28;20248;-68
2023/05/02 04:07:21;;;;;;;1.50;1.40;;;18.50;61.70;;;;;;4959682;28;20236;-68
2023/05/02 04:09:55;;;;;;;1.55;1.38;;;18.50;61.70;;;;;;4967243;28;20235;-67
2023/05/02 04:12:21;;;;;;;1.20;1.20;;;18.50;61.70;;;;;;4967249;28;20185;-68
2023/05/02 04:14:50;;;;;;;1.50;1.40;;;18.50;61.70;;;;;;4958840;28;20225;-68
2023/05/02 04:17:16;;;;;;;1.23;1.17;;;18.50;61.70;;;;;;4967236;28;20189;-68
2023/05/02 04:19:45;;;;;;;1.67;1.58;;;18.50;61.70;;;;;;4975154;28;20185;-68
2023/05/02 04:22:12;;;;;;;1.38;1.30;;;18.50;61.70;;;;;;4943599;28;20186;-68
2023/05/02 04:24:42;;;;;;;1.40;1.30;;;18.50;61.70;;;;;;4966817;28;20217;-68
2023/05/02 04:27:08;;;;;;;1.38;1.30;;;18.50;61.70;;;;;;4959227;28;20200;-69
2023/05/02 04:29:35;;;;;;;1.42;1.33;;;18.50;61.70;;;;;;4959265;28;20240;-68
2023/05/02 04:32:04;;;;;;;1.38;1.17;;;18.50;61.90;;;;;;4958924;28;20181;-68
2023/05/02 04:34:31;;;;;;;1.58;1.48;;;18.50;62.00;;;;;;4958665;28;20259;-68
2023/05/02 04:36:57;;;;;;;2.13;1.52;;;18.50;62.20;;;;;;4966497;28;20209;-68
2023/05/02 04:39:25;;;;;;;2.10;1.40;;;18.50;62.20;;;;;;4958949;28;20211;-68
2023/05/02 04:42:03;;;;;;;1.35;1.25;;;18.50;62.20;;;;;;4975486;28;20285;-68
2023/05/02 04:44:33;;;;;;;2.80;1.13;;;18.50;62.20;;;;;;4964100;28;20206;-68
2023/05/02 04:46:59;;;;;;;5.15;1.42;;;18.60;62.40;;;;;;4966708;28;20193;-68
2023/05/02 04:49:25;;;;;;;2.95;1.40;;;18.50;62.60;;;;;;4958852;28;20193;-69
2023/05/02 04:51:52;;;;;;;3.33;1.33;;;18.60;63.00;;;;;;4967000;28;20272;-70
2023/05/02 04:54:17;;;;;;;3.33;1.35;;;18.60;63.00;;;;;;4974532;28;20271;-69
2023/05/02 04:56:43;;;;;;;2.20;1.60;;;18.60;63.00;;;;;;4998129;28;20189;-70
2023/05/02 04:59:10;;;;;;;3.53;1.83;;;18.60;63.20;;;;;;4967346;28;20193;-70
2023/05/02 05:01:36;;;;;;;2.60;1.65;;;18.60;63.40;;;;;;4982814;28;20193;-70
2023/05/02 05:04:03;;;;;;;7.90;1.95;;;18.60;63.40;;;;;;4974495;28;20224;-70
2023/05/02 05:06:30;;;;;;;4.35;1.77;;;18.60;63.60;;;;;;4979197;28;20194;-70
2023/05/02 05:08:56;;;;;;;5.40;1.60;;;18.60;63.80;;;;;;4966314;28;20189;-70
2023/05/02 05:11:22;;;;;;;5.43;1.85;;;18.60;63.80;;;;;;4958260;28;20673;-70
2023/05/02 05:13:49;;;;;;;8.57;2.20;;;18.60;63.90;;;;;;4954494;28;20217;-70
2023/05/02 05:16:15;;;;;;;4.72;2.00;;;18.60;64.00;;;;;;4961446;28;20185;-70
2023/05/02 05:18:42;;;;;;;6.05;2.20;;;18.60;63.90;;;;;;4962780;28;20197;-71
2023/05/02 05:21:11;;;;;;;5.07;2.10;;;18.60;63.90;;;;;;4973474;28;20190;-69
2023/05/02 05:23:37;;;;;;;5.47;2.20;;;18.60;63.90;;;;;;4957812;28;20201;-70
2023/05/02 05:26:14;;;;;;;2.83;2.10;;;18.60;64.00;;;;;;4998444;28;20189;-71
2023/05/02 05:28:42;;;;;;;4.78;2.20;;;18.60;64.00;;;;;;4970969;28;20216;-70
2023/05/02 05:31:12;;;;;;;9.05;2.42;;;18.60;63.90;;;;;;4956797;28;20216;-70
2023/05/02 05:33:38;;;;;;;7.22;2.30;;;18.60;63.80;;;;;;4980336;28;20734;-70
2023/05/02 05:36:13;;;;;;;4.03;1.98;;;18.60;63.70;;;;;;4967489;28;20219;-70
2023/05/02 05:38:40;;;;;;;6.93;2.42;;;18.60;63.80;;;;;;4982237;28;20189;-70
2023/05/02 05:41:08;;;;;;;5.63;2.70;;;18.60;64.00;;;;;;4975583;28;20182;-70
2023/05/02 05:43:36;;;;;;;6.30;2.10;;;18.60;65.00;;;;;;4968854;28;20283;-70
2023/05/02 05:46:02;;;;;;;5.60;2.22;;;18.60;64.80;;;;;;4959512;28;20609;-71
2023/05/02 05:48:30;;;;;;;12.85;2.20;;;18.70;64.70;;;;;;4962984;28;20177;-70
2023/05/02 05:51:03;;;;;;;4.03;2.40;;;18.70;64.60;;;;;;4953116;28;20181;-70
2023/05/02 05:53:28;;;;;;;4.47;2.15;;;18.60;64.40;;;;;;4964250;28;20692;-71
2023/05/02 05:55:56;;;;;;;4.28;1.98;;;18.60;64.30;;;;;;4965639;28;20197;-70
2023/05/02 05:58:22;;;;;;;4.35;2.30;;;18.70;64.30;;;;;;4949206;28;20189;-70
2023/05/02 06:00:49;;;;;;;6.03;2.47;;;18.70;64.30;;;;;;4965639;28;20277;-70
2023/05/02 06:03:16;;;;;;;2.70;1.83;;;18.70;64.30;;;;;;4949330;28;20177;-70
2023/05/02 06:05:42;;;;;;;6.00;2.05;;;18.70;64.20;;;;;;4957149;28;20252;-70
2023/05/02 06:08:08;;;;;;;5.03;1.90;;;18.70;64.10;;;;;;4973157;28;20748;-71
2023/05/02 06:10:34;;;;;;;3.92;2.20;;;18.70;64.10;;;;;;4949639;28;20177;-71
2023/05/02 06:13:01;;;;;;;3.65;2.03;;;18.70;64.10;;;;;;4962127;28;20320;-70
2023/05/02 06:15:35;;;;;;;3.83;2.03;;;18.70;64.00;;;;;;4964609;28;20304;-70
2023/05/02 06:18:02;;;;;;;3.38;1.90;;;18.70;64.00;;;;;;4989550;28;20192;-70
2023/05/02 06:20:28;;;;;;;4.45;2.08;;;18.70;64.00;;;;;;4961606;28;20200;-70
2023/05/02 06:22:54;;;;;;;5.85;2.22;;;18.70;64.00;;;;;;4968488;28;20196;-70
2023/05/02 06:25:20;;;;;;;5.53;2.28;;;18.70;63.90;;;;;;4956573;28;20245;-70
2023/05/02 06:27:45;;;;;;;4.13;1.95;;;18.70;63.90;;;;;;4963609;28;20185;-71
2023/05/02 06:30:12;;;;;;;5.10;2.10;;;18.70;64.00;;;;;;4966075;28;20726;-70
2023/05/02 06:32:38;;;;;;;2.10;1.73;;;18.70;63.90;;;;;;4973305;28;20186;-71
2023/05/02 06:35:04;;;;;;;5.88;2.05;;;18.70;64.00;;;;;;4980580;28;20205;-70
2023/05/02 06:37:36;;;;;;;5.28;2.17;;;18.70;63.90;;;;;;4964818;28;20186;-71
2023/05/02 06:40:02;;;;;;;3.35;1.88;;;18.70;64.00;;;;;;4949534;28;20203;-70
2023/05/02 06:42:28;;;;;;;2.28;2.00;;;18.70;63.90;;;;;;4963734;28;20238;-70
2023/05/02 06:44:55;;;;;;;4.82;1.85;;;18.70;63.90;;;;;;4956428;28;20225;-70
2023/05/02 06:47:23;;;;;;;2.63;2.13;;;18.70;63.90;;;;;;4975762;28;20193;-70
2023/05/02 06:49:52;;;;;;;3.22;1.80;;;18.70;63.90;;;;;;4986249;28;20228;-70
2023/05/02 06:52:18;;;;;;;4.22;1.95;;;18.70;63.90;;;;;;4984569;28;20200;-70
2023/05/02 06:54:44;;;;;;;3.13;1.98;;;18.70;63.90;;;;;;4969109;28;20713;-71
2023/05/02 06:57:10;;;;;;;2.33;1.73;;;18.70;63.90;;;;;;4975419;28;20205;-71
2023/05/02 06:59:36;;;;;;;2.53;1.90;;;18.70;63.90;;;;;;4975752;28;20192;-70
2023/05/02 07:02:02;;;;;;;3.30;1.85;;;18.70;64.00;;;;;;4959600;28;20208;-71
2023/05/02 07:04:28;;;;;;;2.75;1.92;;;18.70;64.00;;;;;;4971210;28;20275;-70
2023/05/02 07:06:53;;;;;;;3.22;2.00;;;18.70;64.00;;;;;;4972245;28;20189;-70
2023/05/02 07:09:19;;;;;;;2.00;1.80;;;18.80;64.00;;;;;;4967775;28;20181;-70
2023/05/02 07:11:45;;;;;;;2.13;1.90;;;18.70;63.90;;;;;;4967727;28;20663;-71
2023/05/02 07:14:11;;;;;;;2.60;1.67;;;18.70;63.90;;;;;;4967182;28;20219;-70
2023/05/02 07:16:36;;;;;;;1.88;1.70;;;18.70;64.00;;;;;;4954149;28;20200;-70
2023/05/02 07:19:05;;;;;;;2.55;1.80;;;18.70;63.90;;;;;;4956504;28;20194;-71
2023/05/02 07:21:31;;;;;;;2.20;1.70;;;18.70;63.90;;;;;;4971038;28;20197;-71
2023/05/02 07:23:57;;;;;;;3.42;2.17;;;18.70;63.80;;;;;;4980242;28;20213;-70
2023/05/02 07:26:24;;;;;;;2.75;1.95;;;18.70;63.80;;;;;;4975168;28;20711;-70
2023/05/02 07:28:49;;;;;;;3.05;2.15;;;18.80;63.90;;;;;;4975427;28;20200;-70
2023/05/02 07:31:15;;;;;;;3.70;2.05;;;18.70;63.70;;;;;;4975241;28;20197;-70
2023/05/02 07:33:41;;;;;;;3.00;2.25;;;18.70;63.80;;;;;;4969662;28;20205;-70
2023/05/02 07:36:07;;;;;;;4.05;2.20;;;18.70;63.80;;;;;;4973904;28;20200;-70
2023/05/02 07:38:33;;;;;;;4.53;2.40;;;18.70;63.80;;;;;;4967367;28;20223;-71
2023/05/02 07:40:59;;;;;;;3.20;1.80;;;18.70;63.90;;;;;;4975139;28;20184;-70
2023/05/02 07:43:26;;;;;;;2.50;2.30;;;18.70;63.80;;;;;;4967091;28;20191;-70
2023/05/02 07:45:52;;;;;;;2.90;2.15;;;18.70;63.80;;;;;;4992498;28;20239;-70
2023/05/02 07:48:19;;;;;;;3.28;1.90;;;18.80;63.90;;;;;;4967291;28;20189;-70
2023/05/02 07:50:45;;;;;;;3.35;2.10;;;18.70;63.60;;;;;;4975031;28;20189;-70
2023/05/02 07:53:11;;;;;;;2.67;2.22;;;18.70;63.60;;;;;;4969632;28;20212;-70
2023/05/02 07:55:37;;;;;;;2.72;2.33;;;18.80;63.80;;;;;;5007526;28;20262;-70
2023/05/02 07:58:03;;;;;;;2.65;2.10;;;18.80;63.70;;;;;;4974782;28;20220;-71
2023/05/02 08:00:29;;;;;;;2.60;2.25;;;18.70;63.70;;;;;;4966884;28;20231;-70
2023/05/02 08:02:55;;;;;;;2.63;2.00;;;18.70;63.70;;;;;;4967629;28;20196;-70
2023/05/02 08:05:21;;;;;;;1.95;1.77;;;18.70;63.70;;;;;;4998181;28;20216;-70
2023/05/02 08:07:47;;;;;;;3.25;2.08;;;18.80;63.80;;;;;;4964972;28;20703;-70
2023/05/02 08:10:13;;;;;;;2.85;2.10;;;18.80;63.60;;;;;;4989471;28;20185;-71
2023/05/02 08:12:40;;;;;;;3.03;1.70;;;18.80;64.40;;;;;;4953752;28;20194;-70
2023/05/02 08:15:12;;;;;;;2.88;2.08;;;18.80;63.70;;;;;;4971543;28;20216;-70
2023/05/02 08:17:38;;;;;;;2.65;2.10;;;18.80;63.60;;;;;;4968326;28;20201;-70
2023/05/02 08:20:05;;;;;;;2.33;2.13;;;18.80;63.60;;;;;;4974930;28;20281;-70
2023/05/02 08:22:30;;;;;;;2.75;1.95;;;18.80;63.60;;;;;;4967336;28;20215;-70
2023/05/02 08:24:57;;;;;;;2.15;1.95;;;18.80;63.60;;;;;;4958961;28;20235;-70
2023/05/02 08:27:23;;;;;;;2.85;1.98;;;18.80;63.60;;;;;;4974792;28;20193;-71
2023/05/02 08:29:48;;;;;;;2.28;2.08;;;18.80;63.60;;;;;;4984137;28;20195;-70
2023/05/02 08:32:14;;;;;;;3.42;2.35;;;18.80;63.60;;;;;;4974734;28;20197;-70
2023/05/02 08:34:40;;;;;;;2.42;1.95;;;18.80;63.60;;;;;;4982419;28;20217;-70
2023/05/02 08:37:10;;;;;;;1.85;1.75;;;18.80;63.60;;;;;;4966428;28;20200;-71
2023/05/02 08:39:36;;;;;;;2.60;2.30;;;18.80;63.60;;;;;;4970074;28;20192;-70
2023/05/02 08:42:08;;;;;;;2.70;2.08;;;18.70;63.50;;;;;;4970485;28;20212;-71
2023/05/02 08:44:35;;;;;;;3.25;2.53;;;18.80;64.40;;;;;;4962922;28;20236;-70
2023/05/02 08:47:02;;;;;;;3.17;2.00;;;18.80;63.60;;;;;;4970360;28;20194;-70
2023/05/02 08:49:32;;;;;;;2.28;2.08;;;18.80;63.50;;;;;;4974936;28;20276;-70
2023/05/02 08:52:01;;;;;;;2.38;2.17;;;18.80;63.50;;;;;;4965824;28;20191;-70
2023/05/02 08:54:27;;;;;;;2.30;2.10;;;18.80;63.40;;;;;;4974351;28;20308;-70
2023/05/02 08:56:54;;;;;;;2.90;1.90;;;18.80;63.40;;;;;;4965191;28;20652;-70
2023/05/02 08:59:19;;;;;;;2.75;2.15;;;18.80;63.40;;;;;;4969780;28;20239;-70
2023/05/02 09:01:58;;;;;;;2.72;2.20;;;18.80;63.40;;;;;;4969735;28;20201;-70
2023/05/02 09:04:31;;;;;;;2.97;2.08;;;18.80;63.30;;;;;;4961708;28;20228;-70
2023/05/02 09:06:57;;;;;;;2.85;2.58;;;18.80;63.30;;;;;;4962791;28;20201;-70
2023/05/02 09:09:24;;;;;;;2.95;2.47;;;18.80;63.00;;;;;;5001292;28;20189;-71
2023/05/02 09:11:51;;;;;;;4.10;3.65;;;18.80;63.00;;;;;;4964081;28;20225;-71
2023/05/02 09:14:17;;;;;;;6.75;3.72;;;18.80;63.10;;;;;;4998765;28;20205;-70
2023/05/02 09:16:43;;;;;;;5.28;4.25;;;18.80;63.10;;;;;;4966354;28;20200;-70
2023/05/02 09:19:09;;;;;;;5.85;4.57;;;18.80;63.00;;;;;;4966182;28;20197;-70
2023/05/02 09:21:40;;;;;;;7.40;4.70;;;18.80;62.80;;;;;;4970266;28;20566;-70
2023/05/02 09:24:20;;;;;;;5.25;4.75;;;18.80;62.60;;;;;;4961445;28;20218;-70
2023/05/02 09:26:57;;;;;;;12.55;7.97;;;18.80;62.60;;;;;;4952593;28;20198;-69
2023/05/02 09:29:23;;;;;;;9.35;7.70;;;18.80;62.50;;;;;;4966317;28;20263;-70
2023/05/02 09:31:49;;;;;;;16.17;9.90;;;18.80;62.60;;;;;;4966368;28;20193;-69
2023/05/02 09:34:16;;;;;;;11.27;10.07;;;18.80;62.50;;;;;;4957811;28;20236;-70
2023/05/02 09:36:52;;;;;;;14.63;10.65;;;18.90;62.70;;;;;;4979146;28;20202;-69
2023/05/02 09:39:25;;;;;;;14.18;10.57;;;18.90;62.70;;;;;;4964495;28;20205;-70
2023/05/02 09:41:51;;;;;;;11.73;9.40;;;18.90;62.60;;;;;;4957876;28;20197;-70
2023/05/02 09:44:21;;;;;;;12.50;9.48;;;18.90;62.70;;;;;;4958771;28;20241;-70
2023/05/02 09:46:56;;;;;;;11.48;9.45;;;18.90;62.70;;;;;;4969146;28;20192;-69
2023/05/02 09:49:44;;;;;;;11.88;10.48;;;18.90;62.70;;;;;;4966227;28;20284;-70
2023/05/02 09:52:13;;;;;;;14.32;10.50;;;19.00;62.70;;;;;;4965409;28;20190;-70
2023/05/02 09:54:39;;;;;;;12.38;9.70;;;19.00;62.70;;;;;;4957463;28;20213;-70
2023/05/02 09:57:06;;;;;;;12.02;9.82;;;19.00;62.80;;;;;;4957663;28;20197;-70
2023/05/02 09:59:32;;;;;;;11.35;9.50;;;19.00;62.80;;;;;;4981825;28;20204;-70
2023/05/02 10:02:09;;;;;;;12.95;9.02;;;19.00;62.80;;;;;;4978719;28;20654;-69
2023/05/02 10:04:37;;;;;;;11.75;8.95;;;19.00;62.80;;;;;;4957150;28;20213;-69
2023/05/02 10:07:05;;;;;;;11.50;8.80;;;19.00;62.80;;;;;;4965457;28;20248;-70
2023/05/02 10:09:35;;;;;;;10.05;8.10;;;19.00;62.80;;;;;;4989594;28;20217;-70
2023/05/02 10:12:06;;;;;;;9.65;7.93;;;19.00;62.70;;;;;;4941638;28;20190;-70
2023/05/02 10:14:42;;;;;;;11.63;8.18;;;19.00;62.80;;;;;;5005476;28;20224;-70
2023/05/02 10:17:20;;;;;;;10.68;8.05;;;19.00;62.50;;;;;;4957085;28;20204;-69
2023/05/02 10:20:00;;;;;;;8.98;7.35;;;19.00;62.40;;;;;;4957093;28;20280;-70
2023/05/02 10:22:26;;;;;;;10.38;6.93;;;19.00;62.60;;;;;;4973106;28;20672;-70
2023/05/02 10:24:52;;;;;;;8.35;7.03;;;19.00;63.30;;;;;;4940800;28;20225;-70
2023/05/02 10:27:19;;;;;;;10.07;6.97;;;19.00;63.20;;;;;;4972018;28;20666;-71
2023/05/02 10:29:45;;;;;;;8.00;6.72;;;19.00;62.50;;;;;;4981375;28;20240;-70
2023/05/02 10:32:14;;;;;;;8.70;7.22;;;19.00;62.40;;;;;;4973002;28;20253;-70
2023/05/02 10:34:41;;;;;;;7.68;6.57;;;19.00;62.50;;;;;;4956800;28;20308;-70
2023/05/02 10:37:06;;;;;;;9.68;6.80;;;19.00;62.70;;;;;;4947951;28;20201;-70
2023/05/02 10:39:32;;;;;;;9.55;6.40;;;19.10;62.50;;;;;;4964597;28;20232;-70
2023/05/02 10:42:02;;;;;;;7.18;6.55;;;19.10;62.50;;;;;;4940780;28;20205;-70
2023/05/02 10:44:40;;;;;;;7.55;6.35;;;19.10;62.40;;;;;;4956493;28;20247;-70
2023/05/02 10:47:25;;;;;;;9.38;6.55;;;19.10;62.50;;;;;;4956757;28;20549;-70
2023/05/02 10:50:02;;;;;;;6.82;6.22;;;19.10;62.50;;;;;;4956613;28;20789;-70
2023/05/02 10:52:39;;;;;;;8.20;6.05;;;19.10;62.40;;;;;;4956550;28;20197;-70
2023/05/02 10:55:22;;;;;;;8.55;6.22;;;19.10;62.60;;;;;;4956289;28;20323;-70
2023/05/02 10:57:57;;;;;;;9.15;5.80;;;19.10;62.70;;;;;;4958386;28;20190;-70
2023/05/02 11:00:33;;;;;;;7.32;5.80;;;19.10;62.80;;;;;;4948306;28;20204;-70
2023/05/02 11:02:59;;;;;;;6.95;5.82;;;19.10;62.70;;;;;;4956659;28;20193;-70
2023/05/02 11:05:27;;;;;;;6.00;5.40;;;19.10;62.80;;;;;;4955893;28;20241;-70
2023/05/02 11:08:14;;;;;;;6.90;5.00;;;19.10;63.00;;;;;;4940539;28;20197;-70
2023/05/02 11:10:40;;;;;;;6.20;5.07;;;19.10;63.00;;;;;;4956428;28;20209;-70
2023/05/02 11:13:06;;;;;;;5.45;4.95;;;19.20;63.00;;;;;;4972657;28;20190;-69
2023/05/02 11:15:32;;;;;;;8.70;5.15;;;19.10;63.00;;;;;;4956141;28;20237;-70
2023/05/02 11:18:02;;;;;;;9.80;4.97;;;19.20;63.30;;;;;;4956157;28;20189;-71
2023/05/02 11:20:35;;;;;;;5.03;4.53;;;19.20;63.30;;;;;;4942381;28;20189;-69
2023/05/02 11:23:16;;;;;;;7.50;4.78;;;19.20;63.30;;;;;;4993410;28;20213;-71
2023/05/02 11:25:48;;;;;;;6.38;4.15;;;19.20;63.30;;;;;;4988477;28;20225;-70
2023/05/02 11:28:46;;;;;;;5.57;4.65;;;19.20;63.50;;;;;;4979959;28;20193;-70
2023/05/02 11:31:28;;;;;;;5.95;4.43;;;19.20;63.50;;;;;;4971877;28;20242;-71
2023/05/02 11:34:02;;;;;;;7.60;4.18;;;19.20;63.60;;;;;;4970902;28;20213;-70
2023/05/02 11:36:34;;;;;;;5.53;4.38;;;19.20;63.60;;;;;;4981144;28;20186;-71
2023/05/02 11:39:04;;;;;;;5.45;4.30;;;19.20;63.40;;;;;;4955965;28;20281;-71
2023/05/02 11:41:43;;;;;;;6.55;4.03;;;19.20;63.40;;;;;;4975269;28;20204;-70
2023/05/02 11:44:09;;;;;;;5.63;4.22;;;19.20;63.60;;;;;;4950779;28;20216;-70
2023/05/02 11:46:39;;;;;;;6.28;4.20;;;19.20;63.60;;;;;;4963318;28;20204;-68
2023/05/02 11:49:06;;;;;;;7.20;3.85;;;19.20;63.80;;;;;;4969702;28;20200;-70
2023/05/02 11:51:33;;;;;;;4.45;3.85;;;19.20;63.80;;;;;;4996899;28;20259;-70
2023/05/02 11:53:59;;;;;;;4.95;3.65;;;19.20;63.70;;;;;;4950200;28;20217;-71
2023/05/02 11:56:27;;;;;;;5.55;3.78;;;19.20;63.60;;;;;;4956684;28;20316;-70
2023/05/02 11:59:02;;;;;;;8.02;4.35;;;19.20;63.80;;;;;;4975206;28;20287;-70
2023/05/02 12:01:29;;;;;;;6.78;4.38;;;19.30;63.90;;;;;;4966875;28;20214;-70
2023/05/02 12:04:09;;;;;;;5.25;4.03;;;19.20;63.60;;;;;;4969319;28;20236;-69
2023/05/02 12:06:34;;;;;;;4.97;4.00;;;19.20;63.70;;;;;;4955502;28;20193;-70
2023/05/02 12:09:16;;;;;;;4.20;3.88;;;19.20;63.80;;;;;;4957120;28;20618;-70
2023/05/02 12:11:42;;;;;;;5.88;4.25;;;19.20;63.50;;;;;;4955795;28;20194;-70
2023/05/02 12:14:08;;;;;;;4.57;4.15;;;19.20;63.80;;;;;;4966285;28;20221;-69
2023/05/02 12:16:34;;;;;;;6.28;3.80;;;19.20;63.60;;;;;;4959122;28;20182;-70
2023/05/02 12:19:00;;;;;;;7.18;4.30;;;19.20;63.60;;;;;;4976533;28;20189;-69
2023/05/02 12:21:31;;;;;;;5.82;4.28;;;19.20;63.40;;;;;;4958119;28;20284;-70
2023/05/02 12:24:00;;;;;;;5.63;3.95;;;19.20;63.40;;;;;;4958836;28;20768;-70
2023/05/02 12:26:30;;;;;;;7.63;4.40;;;19.20;63.40;;;;;;4975225;28;20223;-69
2023/05/02 12:28:57;;;;;;;7.60;4.20;;;19.30;63.70;;;;;;4983509;28;20281;-70
2023/05/02 12:31:24;;;;;;;8.35;3.55;;;19.30;63.60;;;;;;4959979;28;20197;-70
2023/05/02 12:33:54;;;;;;;7.38;3.72;;;19.30;63.80;;;;;;4965534;28;20239;-70
2023/05/02 12:36:20;;;;;;;4.57;3.65;;;19.30;63.70;;;;;;4958744;28;20295;-70
2023/05/02 12:38:56;;;;;;;7.47;4.03;;;19.30;63.70;;;;;;4962584;28;20185;-69
2023/05/02 12:41:34;;;;;;;5.80;4.47;;;19.30;63.80;;;;;;4978336;28;20193;-69
2023/05/02 12:44:00;;;;;;;6.22;3.45;;;19.30;63.80;;;;;;4964410;28;20589;-69
2023/05/02 12:46:27;;;;;;;5.80;3.97;;;19.30;63.60;;;;;;4966008;28;20201;-70
2023/05/02 12:49:08;;;;;;;6.78;3.63;;;19.30;63.80;;;;;;4976022;28;20193;-69
2023/05/02 12:51:35;;;;;;;4.95;3.65;;;19.30;63.70;;;;;;4942936;28;20262;-69
2023/05/02 12:54:02;;;;;;;6.63;3.80;;;19.30;63.80;;;;;;4942373;28;20252;-69
2023/05/02 12:56:31;;;;;;;5.20;3.95;;;19.30;63.70;;;;;;4958424;28;20193;-69
2023/05/02 12:59:03;;;;;;;6.18;3.85;;;19.30;63.60;;;;;;4983971;28;20237;-69